sensor_id;sensor_type;location;lat;lon;timestamp;P1;durP1;ratioP1;P2;durP2;ratioP2
62457;SDS011;48509;52.122;5.250;2024-02-14T00:00:13;10.9;;;9.31;;
62457;SDS011;48509;52.122;5.250;2024-02-14T00:01:49;10.7;;;9.1;;
62457;SDS011;48509;52.122;5.250;2024-02-14T00:03:25;9.21;;;8.2;;
62457;SDS011;48509;52.122;5.250;2024-02-14T00:06:37;10.8;;;9.71;;
62457;SDS011;48509;52.122;5.250;2024-02-14T00:08:13;10.6;;;9.0;;
62457;SDS011;48509;52.122;5.250;2024-02-14T00:09:49;12.4;;;9.4;;
62457;SDS011;48509;52.122;5.250;2024-02-14T00:11:25;9.1;;;8.2;;
62457;SDS011;48509;52.122;5.250;2024-02-14T00:14:38;10.7;;;9.1;;
62457;SDS011;48509;52.122;5.250;2024-02-14T00:16:14;10.4;;;9.31;;
62457;SDS011;48509;52.122;5.250;2024-02-14T00:17:50;10.9;;;9.81;;
62457;SDS011;48509;52.122;5.250;2024-02-14T00:21:02;10.0;;;8.9;;
62457;SDS011;48509;52.122;5.250;2024-02-14T00:22:38;12.2;;;10.8;;
62457;SDS011;48509;52.122;5.250;2024-02-14T00:24:14;12.2;;;10.1;;
62457;SDS011;48509;52.122;5.250;2024-02-14T00:27:27;10.7;;;9.21;;
62457;SDS011;48509;52.122;5.250;2024-02-14T00:29:03;11.4;;;10.21;;
62457;SDS011;48509;52.122;5.250;2024-02-14T00:30:39;12.6;;;10.4;;
62457;SDS011;48509;52.122;5.250;2024-02-14T00:33:55;12.0;;;10.8;;
62457;SDS011;48509;52.122;5.250;2024-02-14T00:35:31;15.8;;;11.8;;
62457;SDS011;48509;52.122;5.250;2024-02-14T00:37:07;12.8;;;11.5;;
62457;SDS011;48509;52.122;5.250;2024-02-14T00:38:43;16.7;;;14.9;;
62457;SDS011;48509;52.122;5.250;2024-02-14T00:41:56;17.5;;;15.0;;
62457;SDS011;48509;52.122;5.250;2024-02-14T00:43:32;14.4;;;12.9;;
62457;SDS011;48509;52.122;5.250;2024-02-14T00:45:08;14.0;;;12.5;;
62457;SDS011;48509;52.122;5.250;2024-02-14T00:48:21;13.7;;;11.8;;
62457;SDS011;48509;52.122;5.250;2024-02-14T00:49:57;14.3;;;12.3;;
62457;SDS011;48509;52.122;5.250;2024-02-14T00:51:33;15.3;;;12.8;;
62457;SDS011;48509;52.122;5.250;2024-02-14T00:54:45;14.8;;;12.9;;
62457;SDS011;48509;52.122;5.250;2024-02-14T00:56:21;15.1;;;13.5;;
62457;SDS011;48509;52.122;5.250;2024-02-14T00:57:57;12.8;;;11.4;;
62457;SDS011;48509;52.122;5.250;2024-02-14T00:59:34;14.1;;;12.7;;
62457;SDS011;48509;52.122;5.250;2024-02-14T01:02:46;15.7;;;12.5;;
62457;SDS011;48509;52.122;5.250;2024-02-14T01:04:22;17.8;;;15.2;;
62457;SDS011;48509;52.122;5.250;2024-02-14T01:06:01;17.5;;;15.6;;
62457;SDS011;48509;52.122;5.250;2024-02-14T01:09:13;22.2;;;17.0;;
62457;SDS011;48509;52.122;5.250;2024-02-14T01:10:49;15.9;;;14.3;;
62457;SDS011;48509;52.122;5.250;2024-02-14T01:12:25;18.2;;;15.7;;
62457;SDS011;48509;52.122;5.250;2024-02-14T01:15:38;20.5;;;17.8;;
62457;SDS011;48509;52.122;5.250;2024-02-14T01:17:14;19.3;;;17.41;;
62457;SDS011;48509;52.122;5.250;2024-02-14T01:18:50;17.7;;;15.6;;
62457;SDS011;48509;52.122;5.250;2024-02-14T01:22:02;19.91;;;17.11;;
62457;SDS011;48509;52.122;5.250;2024-02-14T01:23:38;20.0;;;17.7;;
62457;SDS011;48509;52.122;5.250;2024-02-14T01:25:14;24.2;;;21.3;;
62457;SDS011;48509;52.122;5.250;2024-02-14T01:26:50;24.2;;;21.3;;
62457;SDS011;48509;52.122;5.250;2024-02-14T01:30:03;22.8;;;18.91;;
62457;SDS011;48509;52.122;5.250;2024-02-14T01:31:40;20.0;;;17.91;;
62457;SDS011;48509;52.122;5.250;2024-02-14T01:33:16;20.2;;;18.0;;
62457;SDS011;48509;52.122;5.250;2024-02-14T01:36:28;21.1;;;18.2;;
62457;SDS011;48509;52.122;5.250;2024-02-14T01:38:04;19.8;;;16.8;;
62457;SDS011;48509;52.122;5.250;2024-02-14T01:39:40;19.91;;;17.8;;
62457;SDS011;48509;52.122;5.250;2024-02-14T01:42:52;20.11;;;17.91;;
62457;SDS011;48509;52.122;5.250;2024-02-14T01:44:29;19.2;;;17.11;;
62457;SDS011;48509;52.122;5.250;2024-02-14T01:46:05;22.4;;;20.0;;
62457;SDS011;48509;52.122;5.250;2024-02-14T01:47:42;19.3;;;16.61;;
62457;SDS011;48509;52.122;5.250;2024-02-14T01:50:54;18.8;;;17.0;;
62457;SDS011;48509;52.122;5.250;2024-02-14T01:52:30;18.8;;;17.0;;
62457;SDS011;48509;52.122;5.250;2024-02-14T01:54:06;20.0;;;17.7;;
62457;SDS011;48509;52.122;5.250;2024-02-14T01:57:18;21.2;;;18.91;;
62457;SDS011;48509;52.122;5.250;2024-02-14T01:58:54;21.2;;;17.41;;
62457;SDS011;48509;52.122;5.250;2024-02-14T02:00:32;27.6;;;24.7;;
62457;SDS011;48509;52.122;5.250;2024-02-14T02:03:48;23.9;;;21.5;;
62457;SDS011;48509;52.122;5.250;2024-02-14T02:05:24;26.9;;;20.3;;
62457;SDS011;48509;52.122;5.250;2024-02-14T02:07:00;19.91;;;17.11;;
62457;SDS011;48509;52.122;5.250;2024-02-14T02:08:36;23.1;;;20.6;;
62457;SDS011;48509;52.122;5.250;2024-02-14T02:11:49;17.91;;;16.11;;
62457;SDS011;48509;52.122;5.250;2024-02-14T02:13:25;20.3;;;17.7;;
62457;SDS011;48509;52.122;5.250;2024-02-14T02:15:02;19.41;;;17.3;;
62457;SDS011;48509;52.122;5.250;2024-02-14T02:18:14;22.0;;;16.2;;
62457;SDS011;48509;52.122;5.250;2024-02-14T02:19:52;19.0;;;16.9;;
62457;SDS011;48509;52.122;5.250;2024-02-14T02:21:29;21.7;;;19.5;;
62457;SDS011;48509;52.122;5.250;2024-02-14T02:24:41;19.11;;;17.11;;
62457;SDS011;48509;52.122;5.250;2024-02-14T02:26:17;20.11;;;17.0;;
62457;SDS011;48509;52.122;5.250;2024-02-14T02:27:53;17.8;;;16.0;;
62457;SDS011;48509;52.122;5.250;2024-02-14T02:29:30;17.3;;;14.6;;
62457;SDS011;48509;52.122;5.250;2024-02-14T02:32:45;19.41;;;17.3;;
62457;SDS011;48509;52.122;5.250;2024-02-14T02:34:21;25.6;;;22.4;;
62457;SDS011;48509;52.122;5.250;2024-02-14T02:35:57;25.4;;;20.41;;
62457;SDS011;48509;52.122;5.250;2024-02-14T02:39:11;24.8;;;20.3;;
62457;SDS011;48509;52.122;5.250;2024-02-14T02:40:47;21.1;;;17.5;;
62457;SDS011;48509;52.122;5.250;2024-02-14T02:42:23;28.3;;;23.9;;
62457;SDS011;48509;52.122;5.250;2024-02-14T02:45:35;24.0;;;21.5;;
62457;SDS011;48509;52.122;5.250;2024-02-14T02:47:12;18.91;;;17.0;;
62457;SDS011;48509;52.122;5.250;2024-02-14T02:48:48;18.91;;;17.0;;
62457;SDS011;48509;52.122;5.250;2024-02-14T02:52:00;20.9;;;18.7;;
62457;SDS011;48509;52.122;5.250;2024-02-14T02:53:36;20.6;;;17.91;;
62457;SDS011;48509;52.122;5.250;2024-02-14T02:55:12;18.61;;;16.61;;
62457;SDS011;48509;52.122;5.250;2024-02-14T02:56:48;21.6;;;19.3;;
62457;SDS011;48509;52.122;5.250;2024-02-14T03:00:00;22.5;;;18.91;;
62457;SDS011;48509;52.122;5.250;2024-02-14T03:01:37;22.2;;;19.8;;
62457;SDS011;48509;52.122;5.250;2024-02-14T03:03:13;24.7;;;20.8;;
62457;SDS011;48509;52.122;5.250;2024-02-14T03:06:25;17.61;;;15.7;;
62457;SDS011;48509;52.122;5.250;2024-02-14T03:08:01;19.7;;;17.61;;
62457;SDS011;48509;52.122;5.250;2024-02-14T03:09:37;21.4;;;18.8;;
62457;SDS011;48509;52.122;5.250;2024-02-14T03:12:50;19.8;;;17.8;;
62457;SDS011;48509;52.122;5.250;2024-02-14T03:14:28;22.8;;;19.61;;
62457;SDS011;48509;52.122;5.250;2024-02-14T03:16:05;21.8;;;18.7;;
62457;SDS011;48509;52.122;5.250;2024-02-14T03:17:41;26.3;;;23.4;;
62457;SDS011;48509;52.122;5.250;2024-02-14T03:20:53;22.2;;;20.0;;
62457;SDS011;48509;52.122;5.250;2024-02-14T03:22:29;23.0;;;19.7;;
62457;SDS011;48509;52.122;5.250;2024-02-14T03:24:05;22.2;;;19.7;;
62457;SDS011;48509;52.122;5.250;2024-02-14T03:27:18;20.7;;;18.5;;
62457;SDS011;48509;52.122;5.250;2024-02-14T03:28:54;27.5;;;22.6;;
62457;SDS011;48509;52.122;5.250;2024-02-14T03:30:30;21.6;;;18.11;;
62457;SDS011;48509;52.122;5.250;2024-02-14T03:33:43;20.7;;;17.61;;
62457;SDS011;48509;52.122;5.250;2024-02-14T03:35:19;27.0;;;19.0;;
62457;SDS011;48509;52.122;5.250;2024-02-14T03:36:55;25.6;;;19.8;;
62457;SDS011;48509;52.122;5.250;2024-02-14T03:40:07;24.3;;;20.0;;
62457;SDS011;48509;52.122;5.250;2024-02-14T03:41:44;24.5;;;19.41;;
62457;SDS011;48509;52.122;5.250;2024-02-14T03:43:20;24.5;;;19.5;;
62457;SDS011;48509;52.122;5.250;2024-02-14T03:44:56;22.6;;;16.8;;
62457;SDS011;48509;52.122;5.250;2024-02-14T03:48:09;25.2;;;19.3;;
62457;SDS011;48509;52.122;5.250;2024-02-14T03:49:45;24.8;;;18.91;;
62457;SDS011;48509;52.122;5.250;2024-02-14T03:51:22;24.7;;;19.11;;
62457;SDS011;48509;52.122;5.250;2024-02-14T03:54:35;28.7;;;18.0;;
62457;SDS011;48509;52.122;5.250;2024-02-14T03:56:11;27.3;;;18.61;;
62457;SDS011;48509;52.122;5.250;2024-02-14T03:57:47;28.6;;;22.2;;
62457;SDS011;48509;52.122;5.250;2024-02-14T04:00:59;24.4;;;17.5;;
62457;SDS011;48509;52.122;5.250;2024-02-14T04:02:36;28.2;;;19.0;;
62457;SDS011;48509;52.122;5.250;2024-02-14T04:04:12;24.3;;;18.91;;
62457;SDS011;48509;52.122;5.250;2024-02-14T04:05:48;30.9;;;22.5;;
62457;SDS011;48509;52.122;5.250;2024-02-14T04:09:00;32.5;;;21.4;;
62457;SDS011;48509;52.122;5.250;2024-02-14T04:10:36;38.5;;;22.5;;
62457;SDS011;48509;52.122;5.250;2024-02-14T04:12:12;35.81;;;21.4;;
62457;SDS011;48509;52.122;5.250;2024-02-14T04:15:24;33.1;;;22.8;;
62457;SDS011;48509;52.122;5.250;2024-02-14T04:17:01;41.2;;;22.4;;
62457;SDS011;48509;52.122;5.250;2024-02-14T04:18:37;36.21;;;21.6;;
62457;SDS011;48509;52.122;5.250;2024-02-14T04:21:49;31.0;;;20.6;;
62457;SDS011;48509;52.122;5.250;2024-02-14T04:23:25;31.7;;;19.8;;
62457;SDS011;48509;52.122;5.250;2024-02-14T04:25:01;32.21;;;18.61;;
62457;SDS011;48509;52.122;5.250;2024-02-14T04:28:13;41.3;;;23.3;;
62457;SDS011;48509;52.122;5.250;2024-02-14T04:29:49;29.0;;;20.6;;
62457;SDS011;48509;52.122;5.250;2024-02-14T04:31:25;33.0;;;21.6;;
62457;SDS011;48509;52.122;5.250;2024-02-14T04:33:02;32.5;;;18.61;;
62457;SDS011;48509;52.122;5.250;2024-02-14T04:36:14;31.9;;;18.3;;
62457;SDS011;48509;52.122;5.250;2024-02-14T04:37:50;40.6;;;23.0;;
62457;SDS011;48509;52.122;5.250;2024-02-14T04:39:26;36.6;;;20.3;;
62457;SDS011;48509;52.122;5.250;2024-02-14T04:42:38;35.71;;;22.0;;
62457;SDS011;48509;52.122;5.250;2024-02-14T04:44:14;35.6;;;21.9;;
62457;SDS011;48509;52.122;5.250;2024-02-14T04:45:50;30.1;;;20.9;;
62457;SDS011;48509;52.122;5.250;2024-02-14T04:49:03;32.8;;;19.2;;
62457;SDS011;48509;52.122;5.250;2024-02-14T04:50:39;38.9;;;21.8;;
62457;SDS011;48509;52.122;5.250;2024-02-14T04:52:15;36.9;;;21.4;;
62457;SDS011;48509;52.122;5.250;2024-02-14T04:53:51;36.9;;;20.9;;
62457;SDS011;48509;52.122;5.250;2024-02-14T04:57:03;29.3;;;20.3;;
62457;SDS011;48509;52.122;5.250;2024-02-14T04:58:39;29.5;;;18.41;;
62457;SDS011;48509;52.122;5.250;2024-02-14T05:00:15;37.31;;;21.6;;
62457;SDS011;48509;52.122;5.250;2024-02-14T05:03:28;30.7;;;19.61;;
62457;SDS011;48509;52.122;5.250;2024-02-14T05:05:05;33.0;;;19.2;;
62457;SDS011;48509;52.122;5.250;2024-02-14T05:06:41;35.0;;;20.8;;
62457;SDS011;48509;52.122;5.250;2024-02-14T05:09:53;31.9;;;20.6;;
62457;SDS011;48509;52.122;5.250;2024-02-14T05:11:29;28.9;;;19.0;;
62457;SDS011;48509;52.122;5.250;2024-02-14T05:13:05;35.1;;;20.6;;
62457;SDS011;48509;52.122;5.250;2024-02-14T05:16:17;36.31;;;20.7;;
62457;SDS011;48509;52.122;5.250;2024-02-14T05:17:53;32.3;;;20.6;;
62457;SDS011;48509;52.122;5.250;2024-02-14T05:19:29;24.5;;;16.7;;
62457;SDS011;48509;52.122;5.250;2024-02-14T05:21:06;24.9;;;16.61;;
62457;SDS011;48509;52.122;5.250;2024-02-14T05:24:19;26.7;;;17.3;;
62457;SDS011;48509;52.122;5.250;2024-02-14T05:25:55;27.3;;;17.11;;
62457;SDS011;48509;52.122;5.250;2024-02-14T05:27:31;23.8;;;17.2;;
62457;SDS011;48509;52.122;5.250;2024-02-14T05:30:43;29.8;;;17.5;;
62457;SDS011;48509;52.122;5.250;2024-02-14T05:32:19;24.8;;;16.9;;
62457;SDS011;48509;52.122;5.250;2024-02-14T05:33:55;25.9;;;18.3;;
62457;SDS011;48509;52.122;5.250;2024-02-14T05:37:08;25.1;;;15.4;;
62457;SDS011;48509;52.122;5.250;2024-02-14T05:38:44;30.4;;;20.5;;
62457;SDS011;48509;52.122;5.250;2024-02-14T05:40:20;30.5;;;18.5;;
62457;SDS011;48509;52.122;5.250;2024-02-14T05:43:32;21.3;;;15.9;;
62457;SDS011;48509;52.122;5.250;2024-02-14T05:45:08;22.1;;;16.7;;
62457;SDS011;48509;52.122;5.250;2024-02-14T05:46:45;23.2;;;17.61;;
62457;SDS011;48509;52.122;5.250;2024-02-14T05:48:21;25.0;;;16.61;;
62457;SDS011;48509;52.122;5.250;2024-02-14T05:51:34;25.0;;;16.61;;
62457;SDS011;48509;52.122;5.250;2024-02-14T05:53:10;21.2;;;16.0;;
62457;SDS011;48509;52.122;5.250;2024-02-14T05:54:46;20.0;;;15.6;;
62457;SDS011;48509;52.122;5.250;2024-02-14T05:57:58;19.7;;;15.8;;
62457;SDS011;48509;52.122;5.250;2024-02-14T05:59:34;26.6;;;17.7;;
62457;SDS011;48509;52.122;5.250;2024-02-14T06:01:10;21.5;;;16.4;;
62457;SDS011;48509;52.122;5.250;2024-02-14T06:04:22;21.6;;;18.11;;
62457;SDS011;48509;52.122;5.250;2024-02-14T06:05:59;22.1;;;17.8;;
62457;SDS011;48509;52.122;5.250;2024-02-14T06:07:35;18.91;;;16.0;;
62457;SDS011;48509;52.122;5.250;2024-02-14T06:09:11;20.2;;;15.8;;
62457;SDS011;48509;52.122;5.250;2024-02-14T06:12:23;22.0;;;18.2;;
62457;SDS011;48509;52.122;5.250;2024-02-14T06:13:59;17.8;;;15.5;;
62457;SDS011;48509;52.122;5.250;2024-02-14T06:15:35;18.61;;;15.0;;
62457;SDS011;48509;52.122;5.250;2024-02-14T06:18:47;18.0;;;14.3;;
62457;SDS011;48509;52.122;5.250;2024-02-14T06:20:23;18.0;;;14.3;;
62457;SDS011;48509;52.122;5.250;2024-02-14T06:21:59;19.3;;;15.5;;
62457;SDS011;48509;52.122;5.250;2024-02-14T06:25:11;18.2;;;13.1;;
62457;SDS011;48509;52.122;5.250;2024-02-14T06:26:47;17.2;;;14.1;;
62457;SDS011;48509;52.122;5.250;2024-02-14T06:28:23;23.3;;;18.8;;
62457;SDS011;48509;52.122;5.250;2024-02-14T06:31:35;16.3;;;14.4;;
62457;SDS011;48509;52.122;5.250;2024-02-14T06:33:11;25.3;;;18.91;;
62457;SDS011;48509;52.122;5.250;2024-02-14T06:34:47;17.11;;;15.2;;
62457;SDS011;48509;52.122;5.250;2024-02-14T06:36:24;21.8;;;18.0;;
62457;SDS011;48509;52.122;5.250;2024-02-14T06:39:36;17.3;;;15.5;;
62457;SDS011;48509;52.122;5.250;2024-02-14T06:41:12;24.8;;;20.8;;
62457;SDS011;48509;52.122;5.250;2024-02-14T06:42:48;23.7;;;18.41;;
62457;SDS011;48509;52.122;5.250;2024-02-14T06:46:00;26.6;;;22.3;;
62457;SDS011;48509;52.122;5.250;2024-02-14T06:47:36;26.4;;;21.3;;
62457;SDS011;48509;52.122;5.250;2024-02-14T06:49:12;22.3;;;18.61;;
62457;SDS011;48509;52.122;5.250;2024-02-14T06:52:25;20.6;;;18.41;;
62457;SDS011;48509;52.122;5.250;2024-02-14T06:54:02;33.3;;;25.0;;
62457;SDS011;48509;52.122;5.250;2024-02-14T06:55:38;22.7;;;19.11;;
62457;SDS011;48509;52.122;5.250;2024-02-14T06:58:50;31.4;;;24.6;;
62457;SDS011;48509;52.122;5.250;2024-02-14T07:00:26;31.4;;;24.6;;
62457;SDS011;48509;52.122;5.250;2024-02-14T07:02:03;34.21;;;23.5;;
62457;SDS011;48509;52.122;5.250;2024-02-14T07:03:40;31.1;;;24.0;;
62457;SDS011;48509;52.122;5.250;2024-02-14T07:06:52;24.2;;;20.41;;
62457;SDS011;48509;52.122;5.250;2024-02-14T07:08:28;27.5;;;22.1;;
62457;SDS011;48509;52.122;5.250;2024-02-14T07:10:05;27.3;;;22.8;;
62457;SDS011;48509;52.122;5.250;2024-02-14T07:13:18;38.21;;;28.2;;
62457;SDS011;48509;52.122;5.250;2024-02-14T07:14:54;29.3;;;23.1;;
62457;SDS011;48509;52.122;5.250;2024-02-14T07:16:30;34.81;;;27.6;;
62457;SDS011;48509;52.122;5.250;2024-02-14T07:19:42;37.0;;;27.7;;
62457;SDS011;48509;52.122;5.250;2024-02-14T07:21:18;37.0;;;26.7;;
62457;SDS011;48509;52.122;5.250;2024-02-14T07:22:54;34.6;;;25.3;;
62457;SDS011;48509;52.122;5.250;2024-02-14T07:24:30;35.4;;;27.7;;
62457;SDS011;48509;52.122;5.250;2024-02-14T07:27:43;41.0;;;30.7;;
62457;SDS011;48509;52.122;5.250;2024-02-14T07:29:19;40.1;;;30.5;;
62457;SDS011;48509;52.122;5.250;2024-02-14T07:30:55;29.1;;;23.3;;
62457;SDS011;48509;52.122;5.250;2024-02-14T07:34:07;25.3;;;22.1;;
62457;SDS011;48509;52.122;5.250;2024-02-14T07:35:43;44.9;;;33.8;;
62457;SDS011;48509;52.122;5.250;2024-02-14T07:37:19;32.1;;;25.7;;
62457;SDS011;48509;52.122;5.250;2024-02-14T07:40:31;35.9;;;27.0;;
62457;SDS011;48509;52.122;5.250;2024-02-14T07:42:10;41.0;;;29.8;;
62457;SDS011;48509;52.122;5.250;2024-02-14T07:43:47;39.6;;;30.6;;
62457;SDS011;48509;52.122;5.250;2024-02-14T07:45:23;42.3;;;31.2;;
62457;SDS011;48509;52.122;5.250;2024-02-14T07:48:35;34.71;;;26.6;;
62457;SDS011;48509;52.122;5.250;2024-02-14T07:50:11;34.9;;;25.0;;
62457;SDS011;48509;52.122;5.250;2024-02-14T07:51:47;40.6;;;31.0;;
62457;SDS011;48509;52.122;5.250;2024-02-14T07:54:59;36.4;;;30.5;;
62457;SDS011;48509;52.122;5.250;2024-02-14T07:56:35;31.8;;;24.5;;
62457;SDS011;48509;52.122;5.250;2024-02-14T07:58:12;32.0;;;22.0;;
62457;SDS011;48509;52.122;5.250;2024-02-14T08:01:24;31.0;;;27.1;;
62457;SDS011;48509;52.122;5.250;2024-02-14T08:03:01;26.7;;;22.2;;
62457;SDS011;48509;52.122;5.250;2024-02-14T08:04:37;47.3;;;27.7;;
62457;SDS011;48509;52.122;5.250;2024-02-14T08:07:49;32.3;;;25.9;;
62457;SDS011;48509;52.122;5.250;2024-02-14T08:09:25;29.6;;;24.5;;
62457;SDS011;48509;52.122;5.250;2024-02-14T08:11:01;28.8;;;23.9;;
62457;SDS011;48509;52.122;5.250;2024-02-14T08:12:37;29.9;;;23.7;;
62457;SDS011;48509;52.122;5.250;2024-02-14T08:15:53;32.4;;;26.5;;
62457;SDS011;48509;52.122;5.250;2024-02-14T08:17:29;32.9;;;25.2;;
62457;SDS011;48509;52.122;5.250;2024-02-14T08:19:05;29.8;;;25.9;;
62457;SDS011;48509;52.122;5.250;2024-02-14T08:22:17;31.3;;;21.2;;
62457;SDS011;48509;52.122;5.250;2024-02-14T08:23:53;25.9;;;22.9;;
62457;SDS011;48509;52.122;5.250;2024-02-14T08:25:30;27.8;;;23.9;;
62457;SDS011;48509;52.122;5.250;2024-02-14T08:28:42;21.6;;;19.3;;
62457;SDS011;48509;52.122;5.250;2024-02-14T08:30:18;26.9;;;23.0;;
62457;SDS011;48509;52.122;5.250;2024-02-14T08:31:55;29.9;;;23.8;;
62457;SDS011;48509;52.122;5.250;2024-02-14T08:33:30;31.9;;;24.9;;
62457;SDS011;48509;52.122;5.250;2024-02-14T08:36:44;27.3;;;24.2;;
62457;SDS011;48509;52.122;5.250;2024-02-14T08:38:20;26.4;;;23.7;;
62457;SDS011;48509;52.122;5.250;2024-02-14T08:39:56;27.9;;;19.8;;
62457;SDS011;48509;52.122;5.250;2024-02-14T08:43:08;22.1;;;19.7;;
62457;SDS011;48509;52.122;5.250;2024-02-14T08:44:44;26.3;;;19.8;;
62457;SDS011;48509;52.122;5.250;2024-02-14T08:46:20;30.4;;;24.5;;
62457;SDS011;48509;52.122;5.250;2024-02-14T08:49:36;24.3;;;20.6;;
62457;SDS011;48509;52.122;5.250;2024-02-14T08:51:12;26.3;;;21.0;;
62457;SDS011;48509;52.122;5.250;2024-02-14T08:52:48;24.7;;;21.4;;
62457;SDS011;48509;52.122;5.250;2024-02-14T08:56:00;32.3;;;23.8;;
62457;SDS011;48509;52.122;5.250;2024-02-14T08:57:36;24.4;;;21.8;;
62457;SDS011;48509;52.122;5.250;2024-02-14T08:59:12;22.6;;;20.11;;
62457;SDS011;48509;52.122;5.250;2024-02-14T09:00:48;33.9;;;26.8;;
62457;SDS011;48509;52.122;5.250;2024-02-14T09:04:00;23.3;;;20.8;;
62457;SDS011;48509;52.122;5.250;2024-02-14T09:05:37;23.1;;;20.8;;
62457;SDS011;48509;52.122;5.250;2024-02-14T09:07:13;27.6;;;24.4;;
62457;SDS011;48509;52.122;5.250;2024-02-14T09:10:25;25.8;;;20.8;;
62457;SDS011;48509;52.122;5.250;2024-02-14T09:12:01;30.6;;;24.6;;
62457;SDS011;48509;52.122;5.250;2024-02-14T09:13:37;24.6;;;21.9;;
62457;SDS011;48509;52.122;5.250;2024-02-14T09:16:49;23.3;;;20.9;;
62457;SDS011;48509;52.122;5.250;2024-02-14T09:18:25;24.5;;;21.8;;
62457;SDS011;48509;52.122;5.250;2024-02-14T09:20:01;26.6;;;23.8;;
62457;SDS011;48509;52.122;5.250;2024-02-14T09:21:37;20.6;;;18.41;;
62457;SDS011;48509;52.122;5.250;2024-02-14T09:24:50;27.2;;;22.9;;
62457;SDS011;48509;52.122;5.250;2024-02-14T09:26:26;25.8;;;23.1;;
62457;SDS011;48509;52.122;5.250;2024-02-14T09:28:02;26.8;;;21.0;;
62457;SDS011;48509;52.122;5.250;2024-02-14T09:31:17;24.7;;;20.5;;
62457;SDS011;48509;52.122;5.250;2024-02-14T09:32:54;24.7;;;21.0;;
62457;SDS011;48509;52.122;5.250;2024-02-14T09:34:33;30.4;;;25.4;;
62457;SDS011;48509;52.122;5.250;2024-02-14T09:37:45;22.3;;;19.91;;
62457;SDS011;48509;52.122;5.250;2024-02-14T09:39:22;27.4;;;22.0;;
62457;SDS011;48509;52.122;5.250;2024-02-14T09:40:58;21.6;;;19.3;;
62457;SDS011;48509;52.122;5.250;2024-02-14T09:42:43;26.6;;;23.6;;
62457;SDS011;48509;52.122;5.250;2024-02-14T09:46:03;27.7;;;24.1;;
62457;SDS011;48509;52.122;5.250;2024-02-14T09:47:40;25.5;;;22.4;;
62457;SDS011;48509;52.122;5.250;2024-02-14T09:49:17;24.8;;;20.7;;
62457;SDS011;48509;52.122;5.250;2024-02-14T09:50:55;32.8;;;23.6;;
62457;SDS011;48509;52.122;5.250;2024-02-14T09:54:10;27.3;;;23.4;;
62457;SDS011;48509;52.122;5.250;2024-02-14T09:55:46;33.3;;;27.1;;
62457;SDS011;48509;52.122;5.250;2024-02-14T09:57:24;33.4;;;27.8;;
62457;SDS011;48509;52.122;5.250;2024-02-14T10:00:38;30.3;;;26.6;;
62457;SDS011;48509;52.122;5.250;2024-02-14T10:02:14;31.2;;;26.6;;
62457;SDS011;48509;52.122;5.250;2024-02-14T10:03:51;40.9;;;29.8;;
62457;SDS011;48509;52.122;5.250;2024-02-14T10:07:04;35.21;;;30.7;;
62457;SDS011;48509;52.122;5.250;2024-02-14T10:08:40;32.1;;;26.7;;
62457;SDS011;48509;52.122;5.250;2024-02-14T10:10:16;32.9;;;26.6;;
62457;SDS011;48509;52.122;5.250;2024-02-14T10:11:52;30.9;;;26.6;;
62457;SDS011;48509;52.122;5.250;2024-02-14T10:15:05;29.3;;;23.7;;
62457;SDS011;48509;52.122;5.250;2024-02-14T10:16:42;26.8;;;23.9;;
62457;SDS011;48509;52.122;5.250;2024-02-14T10:18:18;28.2;;;23.5;;
62457;SDS011;48509;52.122;5.250;2024-02-14T10:21:31;25.2;;;21.3;;
62457;SDS011;48509;52.122;5.250;2024-02-14T10:23:07;26.4;;;23.0;;
62457;SDS011;48509;52.122;5.250;2024-02-14T10:24:43;28.0;;;21.4;;
62457;SDS011;48509;52.122;5.250;2024-02-14T10:28:02;27.6;;;22.2;;
62457;SDS011;48509;52.122;5.250;2024-02-14T10:29:39;27.2;;;23.0;;
62457;SDS011;48509;52.122;5.250;2024-02-14T10:31:20;22.7;;;20.2;;
62457;SDS011;48509;52.122;5.250;2024-02-14T10:32:57;25.2;;;20.2;;
62457;SDS011;48509;52.122;5.250;2024-02-14T10:36:13;23.5;;;18.3;;
62457;SDS011;48509;52.122;5.250;2024-02-14T10:37:50;28.8;;;20.9;;
62457;SDS011;48509;52.122;5.250;2024-02-14T10:39:26;21.4;;;17.91;;
62457;SDS011;48509;52.122;5.250;2024-02-14T10:42:41;23.8;;;19.5;;
62457;SDS011;48509;52.122;5.250;2024-02-14T10:44:17;24.7;;;19.41;;
62457;SDS011;48509;52.122;5.250;2024-02-14T10:45:53;24.6;;;18.5;;
62457;SDS011;48509;52.122;5.250;2024-02-14T10:47:34;21.2;;;16.7;;
62457;SDS011;48509;52.122;5.250;2024-02-14T10:50:48;17.91;;;15.2;;
62457;SDS011;48509;52.122;5.250;2024-02-14T10:52:26;24.1;;;18.8;;
62457;SDS011;48509;52.122;5.250;2024-02-14T10:54:08;20.9;;;17.8;;
62457;SDS011;48509;52.122;5.250;2024-02-14T10:55:47;18.91;;;16.9;;
62457;SDS011;48509;52.122;5.250;2024-02-14T10:59:01;20.7;;;16.4;;
62457;SDS011;48509;52.122;5.250;2024-02-14T11:00:40;19.91;;;17.11;;
62457;SDS011;48509;52.122;5.250;2024-02-14T11:02:16;23.9;;;18.11;;
62457;SDS011;48509;52.122;5.250;2024-02-14T11:05:31;16.9;;;15.1;;
62457;SDS011;48509;52.122;5.250;2024-02-14T11:07:08;16.5;;;14.7;;
62457;SDS011;48509;52.122;5.250;2024-02-14T11:08:56;19.91;;;15.2;;
62457;SDS011;48509;52.122;5.250;2024-02-14T11:10:37;18.91;;;16.4;;
62457;SDS011;48509;52.122;5.250;2024-02-14T11:13:51;16.0;;;13.6;;
62457;SDS011;48509;52.122;5.250;2024-02-14T11:15:28;14.4;;;12.9;;
62457;SDS011;48509;52.122;5.250;2024-02-14T11:17:04;17.2;;;12.8;;
62457;SDS011;48509;52.122;5.250;2024-02-14T11:20:21;13.6;;;11.9;;
62457;SDS011;48509;52.122;5.250;2024-02-14T11:22:10;16.8;;;15.1;;
62457;SDS011;48509;52.122;5.250;2024-02-14T11:23:52;14.0;;;11.8;;
62457;SDS011;48509;52.122;5.250;2024-02-14T11:25:29;14.4;;;10.4;;
62457;SDS011;48509;52.122;5.250;2024-02-14T11:28:46;16.7;;;13.7;;
62457;SDS011;48509;52.122;5.250;2024-02-14T11:30:28;14.3;;;11.4;;
62457;SDS011;48509;52.122;5.250;2024-02-14T11:32:06;12.9;;;11.0;;
62457;SDS011;48509;52.122;5.250;2024-02-14T11:33:43;17.61;;;14.1;;
62457;SDS011;48509;52.122;5.250;2024-02-14T11:36:55;14.2;;;12.7;;
62457;SDS011;48509;52.122;5.250;2024-02-14T11:38:35;12.9;;;11.5;;
62457;SDS011;48509;52.122;5.250;2024-02-14T11:40:11;18.11;;;13.4;;
62457;SDS011;48509;52.122;5.250;2024-02-14T11:41:47;15.4;;;12.3;;
62457;SDS011;48509;52.122;5.250;2024-02-14T11:45:00;14.5;;;12.9;;
62457;SDS011;48509;52.122;5.250;2024-02-14T11:46:36;13.1;;;11.0;;
62457;SDS011;48509;52.122;5.250;2024-02-14T11:48:12;17.3;;;14.5;;
62457;SDS011;48509;52.122;5.250;2024-02-14T11:51:26;15.1;;;12.9;;
62457;SDS011;48509;52.122;5.250;2024-02-14T11:53:03;15.2;;;11.2;;
62457;SDS011;48509;52.122;5.250;2024-02-14T11:54:39;16.3;;;13.6;;
62457;SDS011;48509;52.122;5.250;2024-02-14T11:57:51;16.9;;;15.0;;
62457;SDS011;48509;52.122;5.250;2024-02-14T11:59:28;21.3;;;14.2;;
62457;SDS011;48509;52.122;5.250;2024-02-14T12:01:04;16.3;;;14.0;;
62457;SDS011;48509;52.122;5.250;2024-02-14T12:02:41;15.4;;;13.6;;
62457;SDS011;48509;52.122;5.250;2024-02-14T12:05:54;19.0;;;15.2;;
62457;SDS011;48509;52.122;5.250;2024-02-14T12:07:31;16.5;;;14.3;;
62457;SDS011;48509;52.122;5.250;2024-02-14T12:09:07;17.2;;;13.7;;
62457;SDS011;48509;52.122;5.250;2024-02-14T12:12:22;15.8;;;14.1;;
62457;SDS011;48509;52.122;5.250;2024-02-14T12:14:00;18.41;;;14.8;;
62457;SDS011;48509;52.122;5.250;2024-02-14T12:15:38;19.2;;;15.3;;
62457;SDS011;48509;52.122;5.250;2024-02-14T12:19:00;16.11;;;14.4;;
62457;SDS011;48509;52.122;5.250;2024-02-14T12:20:40;17.5;;;13.1;;
62457;SDS011;48509;52.122;5.250;2024-02-14T12:22:17;15.3;;;13.4;;
62457;SDS011;48509;52.122;5.250;2024-02-14T12:23:57;14.2;;;12.5;;
62457;SDS011;48509;52.122;5.250;2024-02-14T12:27:10;16.0;;;12.8;;
62457;SDS011;48509;52.122;5.250;2024-02-14T12:28:46;12.7;;;11.2;;
62457;SDS011;48509;52.122;5.250;2024-02-14T12:30:22;17.2;;;12.3;;
62457;SDS011;48509;52.122;5.250;2024-02-14T12:32:03;15.2;;;12.8;;